Terminal Aerodrome Forecast
Issued by NWS Denver/Boulder, CO

Home | Current Version | Previous Version | Text Only | Print | Product List | Glossary On
Versions: 1 2 3 4 5 6 7 8 9 10 11 12 13 14 15 16 17 18 19 20 21 22 23 24 25 26 27 28 29 30 31 32 33 34 35 36 37 38 39 40 41 42 43 44 45 46 47 48 49 50
000
FTUS45 KBOU 220437 AAC
TAFDEN
TAF AMD
KDEN 220437Z 2205/2306 01025G35KT 1 1/2SM -SN SCT007 OVC015
      TEMPO 2205/2207 1/2SM SN BKN006
     FM220700 36015G25KT 5SM -SN SCT012 OVC020
     FM221100 35014G22KT 3SM -SN BLSN OVC015
     FM221800 35020G30KT 5SM BLSN SCT025 BKN040
     FM222200 35014G20KT P6SM SCT050 SCT220=

USA.gov is the U.S. government's official web portal to all federal, state and local government web resources and services.